createdAt,value
2018-04-24T00:00:24.284Z,18.83
2018-04-24T00:02:53.387Z,18.47
2018-04-24T00:05:22.805Z,19.63
2018-04-24T00:07:51.989Z,18.97
2018-04-24T00:10:21.097Z,19.43
2018-04-24T00:12:50.429Z,19.30
2018-04-24T00:15:19.744Z,21.03
2018-04-24T00:17:49.403Z,20.97
2018-04-24T00:20:18.660Z,21.93
2018-04-24T00:22:48.649Z,22.07
2018-04-24T00:25:18.453Z,22.00
2018-04-24T00:27:47.888Z,23.80
2018-04-24T00:30:16.930Z,23.73
2018-04-24T00:32:46.027Z,23.43
2018-04-24T00:35:15.216Z,24.77
2018-04-24T00:37:44.484Z,24.40
2018-04-24T00:40:13.559Z,25.03
2018-04-24T00:42:42.712Z,24.00
2018-04-24T00:45:11.908Z,25.20
2018-04-24T00:47:40.981Z,24.43
2018-04-24T00:50:10.379Z,20.73
2018-04-24T00:52:39.632Z,18.83
2018-04-24T00:55:08.972Z,18.73
2018-04-24T00:57:38.183Z,20.40
2018-04-24T01:00:07.376Z,20.97
2018-04-24T01:02:36.638Z,19.37
2018-04-24T01:05:05.844Z,19.43
2018-04-24T01:07:35.104Z,19.77
2018-04-24T01:10:04.475Z,19.63
2018-04-24T01:12:33.733Z,20.50
2018-04-24T01:15:02.830Z,19.37
2018-04-24T01:17:32.163Z,18.60
2018-04-24T01:20:01.316Z,18.57
2018-04-24T01:22:30.425Z,19.10
2018-04-24T01:24:59.895Z,18.77
2018-04-24T01:27:28.968Z,17.10
2018-04-24T01:29:58.185Z,17.30
2018-04-24T01:32:27.863Z,17.07
2018-04-24T01:34:57.189Z,16.13
2018-04-24T01:37:26.476Z,16.70
2018-04-24T01:39:55.572Z,16.30
2018-04-24T01:42:24.896Z,16.87
2018-04-24T01:44:53.934Z,15.73
2018-04-24T01:47:23.134Z,16.37
2018-04-24T01:49:52.440Z,16.23
2018-04-24T01:52:21.424Z,15.03
2018-04-24T01:54:50.385Z,15.60
2018-04-24T01:57:19.513Z,15.33
2018-04-24T01:59:48.962Z,15.17
2018-04-24T02:02:18.170Z,14.90
2018-04-24T02:04:47.247Z,14.17
2018-04-24T02:07:16.384Z,13.57
2018-04-24T02:09:45.495Z,14.73
2018-04-24T02:12:14.582Z,14.77
2018-04-24T02:14:43.687Z,15.07
2018-04-24T02:17:12.962Z,15.37
2018-04-24T02:19:42.143Z,14.07
2018-04-24T02:22:11.380Z,14.70
2018-04-24T02:24:40.650Z,15.20
2018-04-24T02:27:09.897Z,15.23
2018-04-24T02:29:39.023Z,15.33
2018-04-24T02:32:08.215Z,15.40
2018-04-24T02:34:37.792Z,16.40
2018-04-24T02:37:07.167Z,16.50
2018-04-24T02:39:36.334Z,16.13
2018-04-24T02:42:05.448Z,15.27
2018-04-24T02:44:34.590Z,15.47
2018-04-24T02:47:03.665Z,15.53
2018-04-24T02:49:32.832Z,15.20
2018-04-24T02:52:01.966Z,17.00
2018-04-24T02:54:31.278Z,14.77
2018-04-24T02:57:00.544Z,15.97
2018-04-24T02:59:29.729Z,16.83
2018-04-24T03:01:58.873Z,15.73
2018-04-24T03:04:27.900Z,17.57
2018-04-24T03:06:57.223Z,17.23
2018-04-24T03:09:26.478Z,17.87
2018-04-24T03:11:55.532Z,18.10
2018-04-24T03:14:24.552Z,19.73
2018-04-24T03:16:53.903Z,19.37
2018-04-24T03:19:23.113Z,19.20
2018-04-24T03:21:52.601Z,19.10
2018-04-24T03:24:21.693Z,18.60
2018-04-24T03:26:51.152Z,18.13
2018-04-24T03:29:20.369Z,18.37
2018-04-24T03:31:49.726Z,18.97
2018-04-24T03:34:18.806Z,18.70
2018-04-24T03:36:47.888Z,18.03
2018-04-24T03:39:17.025Z,15.43
2018-04-24T03:41:46.269Z,12.23
2018-04-24T03:44:15.412Z,12.40
2018-04-24T03:46:44.815Z,12.00
2018-04-24T03:49:14.416Z,12.00
2018-04-24T03:51:43.419Z,13.43
2018-04-24T03:54:12.627Z,11.33
2018-04-24T03:56:41.685Z,11.80
2018-04-24T03:59:10.536Z,11.63
2018-04-24T04:01:39.545Z,11.50
2018-04-24T04:04:08.798Z,11.87
2018-04-24T04:06:38.010Z,11.27
2018-04-24T04:09:07.245Z,10.93
2018-04-24T04:11:36.567Z,11.00
2018-04-24T04:14:05.567Z,11.63
2018-04-24T04:16:34.733Z,11.70
2018-04-24T04:19:15.221Z,11.63
2018-04-24T04:21:55.524Z,11.57
2018-04-24T04:24:35.080Z,10.67
2018-04-24T04:27:04.231Z,10.93
2018-04-24T04:29:33.346Z,11.47
2018-04-24T04:32:02.696Z,11.20
2018-04-24T04:34:31.836Z,12.13
2018-04-24T04:37:00.905Z,11.90
2018-04-24T04:39:30.121Z,11.27
2018-04-24T04:41:59.234Z,11.47
2018-04-24T04:44:28.436Z,12.03
2018-04-24T04:46:57.616Z,11.20
2018-04-24T04:49:26.877Z,11.87
2018-04-24T04:51:56.031Z,13.53
2018-04-24T04:54:25.299Z,18.87
2018-04-24T04:56:54.478Z,14.87
2018-04-24T04:59:23.712Z,12.87
2018-04-24T05:01:52.884Z,11.10
2018-04-24T05:04:22.200Z,11.70
2018-04-24T05:06:51.531Z,11.20
2018-04-24T05:09:20.563Z,11.57
2018-04-24T05:11:49.726Z,12.23
2018-04-24T05:14:18.914Z,11.70
2018-04-24T05:16:48.048Z,13.47
2018-04-24T05:19:17.295Z,12.77
2018-04-24T05:21:46.522Z,12.63
2018-04-24T05:24:15.873Z,12.80
2018-04-24T05:26:45.120Z,13.67
2018-04-24T05:29:14.263Z,12.77
2018-04-24T05:31:43.575Z,11.80
2018-04-24T05:34:12.817Z,11.57
2018-04-24T05:36:41.965Z,12.27
2018-04-24T05:39:12.817Z,13.47
2018-04-24T05:41:42.048Z,11.00
2018-04-24T05:44:11.305Z,12.20
2018-04-24T05:46:40.554Z,11.77
2018-04-24T05:49:09.706Z,12.77
2018-04-24T05:51:38.857Z,11.53
2018-04-24T05:54:07.963Z,11.23
2018-04-24T05:56:37.244Z,12.33
2018-04-24T05:59:06.557Z,12.50
2018-04-24T06:01:35.698Z,12.33
2018-04-24T06:04:04.820Z,15.67
2018-04-24T06:06:34.052Z,11.83
2018-04-24T06:09:03.513Z,11.97
2018-04-24T06:11:32.827Z,12.43
2018-04-24T06:14:01.989Z,12.30
2018-04-24T06:16:31.184Z,12.60
2018-04-24T06:19:00.316Z,11.67
2018-04-24T06:21:29.607Z,12.10
2018-04-24T06:23:58.659Z,11.47
2018-04-24T06:26:27.873Z,11.90
2018-04-24T06:28:56.975Z,11.40
2018-04-24T06:31:26.048Z,11.70
2018-04-24T06:33:55.272Z,12.60
2018-04-24T06:36:24.373Z,11.20
2018-04-24T06:38:53.558Z,12.03
2018-04-24T06:41:22.803Z,12.00
2018-04-24T06:43:51.988Z,10.87
2018-04-24T06:46:21.118Z,11.73
2018-04-24T06:48:50.194Z,10.87
2018-04-24T06:51:19.347Z,11.47
2018-04-24T06:53:48.488Z,11.13
2018-04-24T06:56:17.648Z,10.60
2018-04-24T06:58:46.753Z,11.87
2018-04-24T07:01:15.812Z,10.20
2018-04-24T07:03:44.886Z,10.37
2018-04-24T07:06:14.061Z,10.70
2018-04-24T07:08:43.098Z,10.33
2018-04-24T07:11:12.576Z,10.73
2018-04-24T07:13:41.596Z,10.67
2018-04-24T07:16:10.734Z,11.20
2018-04-24T07:18:40.186Z,11.90
2018-04-24T07:21:09.346Z,12.00
2018-04-24T07:23:38.283Z,11.90
2018-04-24T07:26:07.292Z,14.40
2018-04-24T07:28:36.600Z,11.93
2018-04-24T07:31:05.829Z,11.60
2018-04-24T07:33:34.972Z,10.80
2018-04-24T07:36:04.928Z,11.33
2018-04-24T07:38:34.398Z,10.80
2018-04-24T07:41:03.466Z,11.53
2018-04-24T07:43:32.503Z,10.97
2018-04-24T07:46:01.580Z,10.17
2018-04-24T07:48:30.681Z,10.87
2018-04-24T07:51:00.079Z,10.47
2018-04-24T07:53:29.166Z,15.10
2018-04-24T07:55:58.368Z,8.93
2018-04-24T07:58:27.442Z,8.57
2018-04-24T08:00:56.421Z,8.70
2018-04-24T08:03:25.658Z,6.90
2018-04-24T08:05:54.776Z,6.87
2018-04-24T08:08:24.044Z,8.03
2018-04-24T08:11:04.900Z,7.30
2018-04-24T08:13:40.466Z,5.87
2018-04-24T08:16:10.054Z,6.30
2018-04-24T08:18:50.043Z,6.63
2018-04-24T08:21:25.728Z,6.70
2018-04-24T08:23:56.472Z,6.83
2018-04-24T08:26:25.856Z,6.03
2018-04-24T08:28:55.053Z,6.07
2018-04-24T08:31:34.922Z,6.30
2018-04-24T08:34:09.577Z,6.17
2018-04-24T08:36:39.476Z,5.60
2018-04-24T08:39:08.613Z,6.13
2018-04-24T08:41:37.950Z,6.00
2018-04-24T08:44:06.917Z,7.13
2018-04-24T08:46:35.933Z,6.93
2018-04-24T08:49:05.110Z,6.13
2018-04-24T08:51:34.289Z,6.70
2018-04-24T08:54:03.695Z,6.90
2018-04-24T08:56:32.905Z,6.17
2018-04-24T08:59:02.156Z,6.20
2018-04-24T09:01:31.374Z,6.17
2018-04-24T09:04:00.661Z,5.50
2018-04-24T09:06:29.961Z,5.60
2018-04-24T09:08:59.309Z,5.83
2018-04-24T09:11:28.620Z,5.77
2018-04-24T09:13:57.843Z,5.73
2018-04-24T09:16:27.169Z,6.07
2018-04-24T09:18:56.425Z,4.90
2018-04-24T09:21:25.861Z,4.33
2018-04-24T09:23:55.073Z,5.23
2018-04-24T09:26:25.064Z,4.83
2018-04-24T09:28:54.239Z,4.50
2018-04-24T09:31:28.917Z,4.67
2018-04-24T09:33:58.820Z,4.43
2018-04-24T09:36:27.900Z,4.20
2018-04-24T09:38:57.185Z,4.83
2018-04-24T09:41:26.469Z,4.40
2018-04-24T09:43:55.638Z,4.23
2018-04-24T09:46:24.735Z,4.43
2018-04-24T09:48:53.887Z,3.73
2018-04-24T09:51:23.019Z,4.00
2018-04-24T09:53:52.296Z,3.70
2018-04-24T09:56:21.405Z,4.90
2018-04-24T09:58:50.629Z,4.10
2018-04-24T10:01:20.873Z,4.07
2018-04-24T10:03:50.117Z,3.77
2018-04-24T10:06:19.275Z,3.90
2018-04-24T10:08:48.406Z,3.37
2018-04-24T10:11:17.881Z,3.80
2018-04-24T10:13:46.966Z,3.87
2018-04-24T10:16:16.056Z,5.83
2018-04-24T10:18:47.292Z,6.27
2018-04-24T10:21:16.969Z,7.03
2018-04-24T10:23:46.032Z,7.37
2018-04-24T10:26:15.181Z,7.73
2018-04-24T10:28:44.330Z,7.23
2018-04-24T10:31:13.612Z,6.70
2018-04-24T10:33:43.742Z,6.60
2018-04-24T10:36:12.935Z,6.40
2018-04-24T10:38:42.049Z,6.80
2018-04-24T10:41:11.067Z,6.33
2018-04-24T10:43:40.834Z,6.47
2018-04-24T10:46:10.448Z,6.73
2018-04-24T10:48:39.508Z,7.23
2018-04-24T10:51:08.545Z,6.33
2018-04-24T10:53:37.659Z,6.60
2018-04-24T10:56:06.708Z,6.47
2018-04-24T10:58:35.937Z,7.30
2018-04-24T11:01:05.412Z,6.70
2018-04-24T11:03:34.760Z,6.73
2018-04-24T11:06:04.002Z,7.03
2018-04-24T11:08:33.012Z,7.50
2018-04-24T11:11:02.140Z,6.83
2018-04-24T11:13:31.560Z,6.60
2018-04-24T11:16:00.716Z,6.40
2018-04-24T11:18:30.014Z,7.20
2018-04-24T11:20:59.290Z,6.60
2018-04-24T11:23:28.344Z,6.27
2018-04-24T11:25:57.580Z,7.63
2018-04-24T11:28:26.776Z,6.40
2018-04-24T11:30:55.897Z,5.90
2018-04-24T11:33:25.040Z,5.77
2018-04-24T11:35:54.362Z,5.37
2018-04-24T11:38:23.596Z,6.03
2018-04-24T11:40:52.788Z,5.73
2018-04-24T11:43:22.103Z,5.90
2018-04-24T11:45:51.266Z,5.53
2018-04-24T11:48:20.441Z,5.60
2018-04-24T11:50:49.895Z,5.40
2018-04-24T11:53:19.032Z,5.67
2018-04-24T11:55:48.070Z,5.53
2018-04-24T11:58:17.192Z,5.40
2018-04-24T12:00:46.272Z,5.10
2018-04-24T12:03:15.264Z,5.73
2018-04-24T12:05:44.368Z,5.43
2018-04-24T12:08:13.503Z,5.57
2018-04-24T12:10:42.603Z,5.47
2018-04-24T12:13:11.939Z,5.07
2018-04-24T12:15:41.217Z,5.47
2018-04-24T12:18:10.463Z,4.70
2018-04-24T12:20:40.008Z,4.47
2018-04-24T12:23:09.243Z,4.70
2018-04-24T12:25:38.683Z,4.70
2018-04-24T12:28:07.942Z,4.60
2018-04-24T12:30:37.221Z,4.77
2018-04-24T12:33:06.178Z,4.57
2018-04-24T12:35:35.408Z,5.20
2018-04-24T12:38:04.646Z,4.80
2018-04-24T12:40:33.854Z,4.97
2018-04-24T12:43:02.895Z,4.57
2018-04-24T12:45:32.237Z,4.70
2018-04-24T12:48:01.442Z,4.83
2018-04-24T12:50:30.517Z,4.33
2018-04-24T12:52:59.693Z,5.23
2018-04-24T12:55:28.804Z,5.33
2018-04-24T12:57:58.131Z,4.50
2018-04-24T13:00:27.324Z,4.40
2018-04-24T13:02:56.660Z,4.53
2018-04-24T13:05:25.818Z,4.40
2018-04-24T13:07:55.020Z,4.07
2018-04-24T13:10:24.172Z,4.03
2018-04-24T13:12:53.408Z,4.50
2018-04-24T13:15:22.603Z,4.17
2018-04-24T13:17:51.652Z,4.10
2018-04-24T13:20:20.741Z,4.37
2018-04-24T13:22:49.904Z,4.43
2018-04-24T13:25:19.388Z,4.20
2018-04-24T13:27:48.792Z,4.43
2018-04-24T13:30:18.915Z,4.90
2018-04-24T13:32:47.990Z,4.63
2018-04-24T13:35:17.095Z,3.80
2018-04-24T13:37:46.331Z,4.60
2018-04-24T13:40:15.559Z,4.73
2018-04-24T13:42:44.644Z,4.70
2018-04-24T13:45:13.852Z,4.47
2018-04-24T13:47:43.237Z,5.33
2018-04-24T13:50:12.464Z,5.13
2018-04-24T13:52:41.686Z,4.57
2018-04-24T13:55:10.873Z,4.77
2018-04-24T13:57:40.257Z,5.10
2018-04-24T14:00:09.395Z,5.00
2018-04-24T14:02:38.584Z,4.90
2018-04-24T14:05:08.424Z,4.50
2018-04-24T14:07:37.517Z,5.20
2018-04-24T14:10:07.100Z,5.20
2018-04-24T14:12:36.953Z,4.77
2018-04-24T14:15:06.268Z,4.87
2018-04-24T14:17:35.220Z,5.27
2018-04-24T14:20:04.292Z,4.33
2018-04-24T14:22:33.404Z,5.20
2018-04-24T14:25:02.469Z,5.00
2018-04-24T14:27:31.846Z,4.67
2018-04-24T14:30:01.020Z,4.70
2018-04-24T14:32:30.138Z,5.23
2018-04-24T14:34:59.269Z,4.50
2018-04-24T14:37:28.554Z,4.87
2018-04-24T14:39:57.710Z,6.13
2018-04-24T14:42:27.761Z,6.17
2018-04-24T14:44:56.786Z,6.63
2018-04-24T14:47:25.939Z,7.73
2018-04-24T14:49:54.980Z,7.70
2018-04-24T14:52:24.094Z,9.20
2018-04-24T14:54:53.117Z,10.47
2018-04-24T14:57:22.099Z,10.03
2018-04-24T14:59:51.417Z,10.53
2018-04-24T15:02:20.721Z,11.77
2018-04-24T15:04:49.861Z,12.57
2018-04-24T15:07:19.015Z,12.63
2018-04-24T15:09:48.240Z,13.20
2018-04-24T15:12:17.075Z,13.23
2018-04-24T15:14:46.199Z,14.53
2018-04-24T15:17:15.336Z,13.20
2018-04-24T15:19:44.287Z,13.70
2018-04-24T15:22:13.585Z,13.43
2018-04-24T15:24:42.630Z,14.63
2018-04-24T15:27:11.782Z,14.03
2018-04-24T15:29:41.084Z,14.17
2018-04-24T15:32:10.125Z,15.07
2018-04-24T15:34:39.534Z,15.33
2018-04-24T15:37:08.694Z,14.20
2018-04-24T15:39:37.800Z,14.63
2018-04-24T15:42:06.921Z,14.60
2018-04-24T15:44:36.157Z,15.17
2018-04-24T15:47:05.217Z,14.20
2018-04-24T15:49:34.305Z,16.00
2018-04-24T15:52:03.453Z,15.53
2018-04-24T15:54:32.851Z,15.40
2018-04-24T15:57:02.236Z,15.20
2018-04-24T15:59:31.561Z,15.37
2018-04-24T16:02:00.820Z,15.13
2018-04-24T16:04:30.938Z,14.80
2018-04-24T16:07:00.167Z,14.87
2018-04-24T16:09:29.555Z,14.63
2018-04-24T16:11:58.768Z,15.00
2018-04-24T16:14:27.794Z,15.20
2018-04-24T16:16:56.908Z,14.70
2018-04-24T16:19:26.108Z,15.03
2018-04-24T16:21:55.354Z,13.83
2018-04-24T16:24:24.574Z,14.57
2018-04-24T16:26:53.785Z,15.10
2018-04-24T16:29:22.898Z,15.47
2018-04-24T16:31:51.909Z,15.00
2018-04-24T16:34:21.032Z,14.97
2018-04-24T16:36:50.051Z,15.80
2018-04-24T16:39:19.365Z,15.60
2018-04-24T16:41:48.268Z,15.17
2018-04-24T16:44:17.425Z,16.60
2018-04-24T16:46:46.707Z,16.67
2018-04-24T16:49:16.005Z,16.40
2018-04-24T16:51:45.108Z,16.33
2018-04-24T16:54:14.145Z,16.87
2018-04-24T16:56:43.497Z,17.43
2018-04-24T16:59:12.688Z,16.70
2018-04-24T17:01:41.692Z,16.60
2018-04-24T17:04:10.700Z,17.40
2018-04-24T17:06:39.700Z,16.80
2018-04-24T17:09:09.518Z,17.03
2018-04-24T17:11:38.634Z,16.33
2018-04-24T17:14:07.844Z,16.17
2018-04-24T17:16:36.906Z,16.23
2018-04-24T17:19:06.136Z,15.63
2018-04-24T17:21:35.367Z,16.40
2018-04-24T17:24:04.471Z,15.90
2018-04-24T17:26:33.538Z,16.40
2018-04-24T17:29:02.632Z,15.47
2018-04-24T17:31:31.754Z,14.90
2018-04-24T17:34:00.825Z,16.30
2018-04-24T17:36:29.790Z,15.67
2018-04-24T17:38:58.884Z,15.00
2018-04-24T17:41:28.153Z,14.50
2018-04-24T17:43:57.130Z,14.97
2018-04-24T17:46:26.177Z,14.70
2018-04-24T17:48:55.243Z,14.10
2018-04-24T17:51:24.460Z,14.17
2018-04-24T17:53:53.648Z,14.53
2018-04-24T17:56:22.846Z,13.77
2018-04-24T17:58:51.996Z,13.10
2018-04-24T18:01:21.033Z,13.03
2018-04-24T18:03:50.161Z,12.30
2018-04-24T18:06:19.232Z,13.23
2018-04-24T18:08:48.994Z,13.47
2018-04-24T18:11:18.206Z,13.70
2018-04-24T18:13:47.177Z,13.37
2018-04-24T18:16:16.364Z,14.17
2018-04-24T18:18:45.418Z,15.43
2018-04-24T18:21:14.480Z,13.37
2018-04-24T18:23:43.529Z,13.77
2018-04-24T18:26:12.604Z,11.73
2018-04-24T18:28:41.811Z,13.60
2018-04-24T18:31:10.900Z,12.17
2018-04-24T18:33:39.873Z,13.20
2018-04-24T18:36:08.936Z,12.83
2018-04-24T18:38:37.975Z,11.53
2018-04-24T18:41:06.996Z,11.17
2018-04-24T18:43:36.009Z,13.40
2018-04-24T18:46:05.024Z,13.80
2018-04-24T18:48:34.247Z,14.50
2018-04-24T18:51:03.434Z,13.50
2018-04-24T18:53:32.469Z,13.13
2018-04-24T18:56:01.704Z,13.10
2018-04-24T18:58:30.828Z,13.47
2018-04-24T19:00:59.832Z,11.97
2018-04-24T19:03:28.850Z,14.23
2018-04-24T19:05:57.870Z,18.30
2018-04-24T19:08:26.868Z,13.53
2018-04-24T19:10:55.926Z,17.53
2018-04-24T19:13:24.922Z,15.50
2018-04-24T19:15:53.929Z,13.67
2018-04-24T19:18:28.362Z,15.30
2018-04-24T19:20:57.537Z,13.50
2018-04-24T19:23:26.577Z,15.27
2018-04-24T19:25:55.676Z,14.50
2018-04-24T19:28:24.560Z,15.40
2018-04-24T19:30:53.605Z,15.97
2018-04-24T19:33:23.301Z,14.97
2018-04-24T19:35:52.316Z,14.97
2018-04-24T19:38:21.308Z,15.20
2018-04-24T19:40:55.948Z,15.67
2018-04-24T19:43:25.116Z,15.47
2018-04-24T19:45:54.192Z,14.90
2018-04-24T19:48:28.926Z,14.43
2018-04-24T19:50:57.984Z,15.37
2018-04-24T19:53:27.169Z,15.63
2018-04-24T19:55:56.155Z,15.73
2018-04-24T19:58:25.175Z,17.23
2018-04-24T20:00:54.272Z,23.87
2018-04-24T20:03:23.535Z,17.33
2018-04-24T20:05:52.712Z,15.37
2018-04-24T20:08:21.879Z,18.97
2018-04-24T20:10:50.948Z,18.60
2018-04-24T20:13:20.609Z,19.10
2018-04-24T20:15:49.892Z,18.93
2018-04-24T20:18:19.085Z,18.53
2018-04-24T20:20:48.091Z,18.03
2018-04-24T20:23:18.033Z,18.03
2018-04-24T20:25:47.251Z,16.73
2018-04-24T20:28:16.406Z,16.93
2018-04-24T20:30:45.577Z,17.43
2018-04-24T20:33:14.748Z,18.03
2018-04-24T20:35:44.001Z,17.43
2018-04-24T20:38:13.400Z,18.93
2018-04-24T20:40:42.395Z,19.90
2018-04-24T20:43:11.691Z,21.20
2018-04-24T20:45:41.006Z,23.10
2018-04-24T20:48:10.057Z,24.03
2018-04-24T20:50:39.553Z,24.30
2018-04-24T20:53:08.827Z,24.03
2018-04-24T20:55:38.313Z,23.70
2018-04-24T20:58:07.551Z,24.47
2018-04-24T21:00:36.748Z,23.23
2018-04-24T21:03:05.903Z,24.40
2018-04-24T21:05:35.134Z,24.27
2018-04-24T21:08:04.212Z,25.47
2018-04-24T21:10:33.553Z,24.80
2018-04-24T21:13:02.913Z,23.57
2018-04-24T21:15:32.224Z,24.00
2018-04-24T21:18:01.245Z,25.23
2018-04-24T21:20:30.499Z,25.87
2018-04-24T21:22:59.559Z,25.90
2018-04-24T21:25:28.843Z,26.50
2018-04-24T21:27:57.999Z,26.93
2018-04-24T21:30:27.817Z,25.70
2018-04-24T21:32:57.072Z,25.73
2018-04-24T21:35:26.085Z,26.80
2018-04-24T21:37:56.014Z,28.07
2018-04-24T21:40:25.430Z,29.83
2018-04-24T21:42:54.456Z,30.70
2018-04-24T21:45:23.426Z,31.63
2018-04-24T21:47:52.460Z,31.63
2018-04-24T21:50:22.524Z,32.17
2018-04-24T21:52:51.585Z,33.40
2018-04-24T21:55:20.740Z,34.40
2018-04-24T21:57:50.902Z,30.50
2018-04-24T22:00:20.158Z,31.60
2018-04-24T22:02:49.228Z,32.27
2018-04-24T22:05:18.224Z,33.07
2018-04-24T22:07:47.248Z,32.47
2018-04-24T22:10:16.253Z,33.17
2018-04-24T22:12:45.279Z,33.87
2018-04-24T22:15:14.517Z,33.57
2018-04-24T22:17:43.694Z,34.17
2018-04-24T22:20:12.965Z,36.50
2018-04-24T22:22:42.157Z,39.83
2018-04-24T22:25:11.298Z,36.70
2018-04-24T22:27:40.446Z,36.40
2018-04-24T22:30:09.649Z,40.27
2018-04-24T22:32:38.874Z,37.77
2018-04-24T22:35:08.102Z,41.20
2018-04-24T22:37:37.244Z,37.57
2018-04-24T22:40:06.145Z,32.13
2018-04-24T22:42:35.328Z,29.80
2018-04-24T22:45:04.471Z,30.17
2018-04-24T22:47:33.686Z,31.07
2018-04-24T22:50:02.683Z,30.27
2018-04-24T22:52:31.856Z,31.07
2018-04-24T22:55:00.843Z,30.53
2018-04-24T22:57:29.825Z,32.33
2018-04-24T22:59:59.749Z,30.23
2018-04-24T23:02:29.297Z,30.13
2018-04-24T23:04:58.375Z,30.07
2018-04-24T23:07:27.476Z,28.83
2018-04-24T23:09:55.621Z,28.77
2018-04-24T23:12:35.669Z,28.70
2018-04-24T23:15:21.940Z,28.00
2018-04-24T23:18:08.410Z,27.40
2018-04-24T23:20:42.205Z,23.83
2018-04-24T23:23:10.928Z,24.27
2018-04-24T23:25:40.171Z,22.00
2018-04-24T23:28:09.362Z,22.40
2018-04-24T23:30:38.609Z,21.23
2018-04-24T23:33:08.560Z,20.80
2018-04-24T23:35:37.764Z,20.73
2018-04-24T23:38:07.093Z,20.60
2018-04-24T23:40:36.353Z,18.13
2018-04-24T23:43:05.573Z,17.87
2018-04-24T23:45:34.849Z,17.37
2018-04-24T23:48:03.964Z,16.17
2018-04-24T23:50:33.166Z,16.17
2018-04-24T23:53:02.278Z,14.80
2018-04-24T23:55:31.452Z,12.50
2018-04-24T23:58:00.721Z,11.37
